sensor_id;sensor_type;location;lat;lon;timestamp;pressure;altitude;pressure_sealevel;temperature;humidity
63808;BME280;49961;43.970;22.868;2022-11-15T00:00:01;102398.50;;;10.48;100.00
63808;BME280;49961;43.970;22.868;2022-11-15T00:01:01;102391.75;;;10.42;100.00
63808;BME280;49961;43.970;22.868;2022-11-15T00:02:01;102271.78;;;9.67;100.00
63808;BME280;49961;43.970;22.868;2022-11-15T00:03:04;102382.63;;;10.42;100.00
63808;BME280;49961;43.970;22.868;2022-11-15T00:04:05;102406.44;;;10.50;100.00
63808;BME280;49961;43.970;22.868;2022-11-15T00:05:05;102393.78;;;10.52;100.00
63808;BME280;49961;43.970;22.868;2022-11-15T00:06:06;102394.56;;;10.53;100.00
63808;BME280;49961;43.970;22.868;2022-11-15T00:07:06;102369.53;;;10.39;100.00
63808;BME280;49961;43.970;22.868;2022-11-15T00:08:07;102390.19;;;10.55;100.00
63808;BME280;49961;43.970;22.868;2022-11-15T00:09:07;102360.84;;;10.40;100.00
63808;BME280;49961;43.970;22.868;2022-11-15T00:10:08;102389.81;;;10.60;100.00
63808;BME280;49961;43.970;22.868;2022-11-15T00:11:10;102391.41;;;10.61;100.00
63808;BME280;49961;43.970;22.868;2022-11-15T00:12:11;102389.81;;;10.60;100.00
63808;BME280;49961;43.970;22.868;2022-11-15T00:13:13;102400.91;;;10.60;100.00
63808;BME280;49961;43.970;22.868;2022-11-15T00:14:13;102384.66;;;10.59;100.00
63808;BME280;49961;43.970;22.868;2022-11-15T00:15:13;102384.28;;;10.57;100.00
63808;BME280;49961;43.970;22.868;2022-11-15T00:16:14;102384.66;;;10.59;100.00
63808;BME280;49961;43.970;22.868;2022-11-15T00:17:14;102381.94;;;10.62;100.00
63808;BME280;49961;43.970;22.868;2022-11-15T00:18:15;102395.00;;;10.62;100.00
63808;BME280;49961;43.970;22.868;2022-11-15T00:19:17;102383.91;;;10.62;100.00
63808;BME280;49961;43.970;22.868;2022-11-15T00:20:17;102381.94;;;10.62;100.00
63808;BME280;49961;43.970;22.868;2022-11-15T00:21:18;102382.31;;;10.64;100.00
63808;BME280;49961;43.970;22.868;2022-11-15T00:22:18;102385.47;;;10.63;100.00
63808;BME280;49961;43.970;22.868;2022-11-15T00:23:19;102386.28;;;10.63;100.00
63808;BME280;49961;43.970;22.868;2022-11-15T00:24:19;102380.34;;;10.65;100.00
63808;BME280;49961;43.970;22.868;2022-11-15T00:25:20;102302.56;;;10.23;100.00
63808;BME280;49961;43.970;22.868;2022-11-15T00:26:20;102378.38;;;10.69;100.00
63808;BME280;49961;43.970;22.868;2022-11-15T00:27:20;102378.38;;;10.72;100.00
63808;BME280;49961;43.970;22.868;2022-11-15T00:28:21;102378.38;;;10.72;100.00
63808;BME280;49961;43.970;22.868;2022-11-15T00:29:21;102377.59;;;10.75;100.00
63808;BME280;49961;43.970;22.868;2022-11-15T00:30:23;102289.50;;;10.16;100.00
63808;BME280;49961;43.970;22.868;2022-11-15T00:31:23;102379.19;;;10.69;100.00
63808;BME280;49961;43.970;22.868;2022-11-15T00:32:24;102379.56;;;10.68;100.00
63808;BME280;49961;43.970;22.868;2022-11-15T00:33:24;102377.16;;;10.63;100.00
63808;BME280;49961;43.970;22.868;2022-11-15T00:34:24;102370.78;;;10.55;100.00
63808;BME280;49961;43.970;22.868;2022-11-15T00:35:25;102380.28;;;10.51;100.00
63808;BME280;49961;43.970;22.868;2022-11-15T00:36:25;102373.13;;;10.46;100.00
63808;BME280;49961;43.970;22.868;2022-11-15T00:37:26;102377.47;;;10.44;100.00
63808;BME280;49961;43.970;22.868;2022-11-15T00:38:31;102316.28;;;10.02;100.00
63808;BME280;49961;43.970;22.868;2022-11-15T00:39:31;102367.94;;;10.31;100.00
63808;BME280;49961;43.970;22.868;2022-11-15T00:40:32;102354.81;;;10.21;100.00
63808;BME280;49961;43.970;22.868;2022-11-15T00:41:32;102373.50;;;10.38;100.00
63808;BME280;49961;43.970;22.868;2022-11-15T00:42:33;102358.44;;;10.32;100.00
63808;BME280;49961;43.970;22.868;2022-11-15T00:43:33;102370.34;;;10.43;100.00
63808;BME280;49961;43.970;22.868;2022-11-15T00:44:34;102344.16;;;10.30;100.00
63808;BME280;49961;43.970;22.868;2022-11-15T00:45:35;102267.13;;;9.81;100.00
63808;BME280;49961;43.970;22.868;2022-11-15T00:46:35;102356.47;;;10.39;100.00
63808;BME280;49961;43.970;22.868;2022-11-15T00:47:36;102375.13;;;10.53;100.00
63808;BME280;49961;43.970;22.868;2022-11-15T00:48:37;102255.25;;;9.81;100.00
63808;BME280;49961;43.970;22.868;2022-11-15T00:49:37;102364.06;;;10.56;100.00
63808;BME280;49961;43.970;22.868;2022-11-15T00:50:37;102371.22;;;10.57;100.00
63808;BME280;49961;43.970;22.868;2022-11-15T00:51:38;102372.75;;;10.48;100.00
63808;BME280;49961;43.970;22.868;2022-11-15T00:52:38;102267.50;;;9.80;100.00
63808;BME280;49961;43.970;22.868;2022-11-15T00:53:39;102362.84;;;10.43;100.00
63808;BME280;49961;43.970;22.868;2022-11-15T00:54:39;102368.38;;;10.47;100.00
63808;BME280;49961;43.970;22.868;2022-11-15T00:55:40;102365.22;;;10.45;100.00
63808;BME280;49961;43.970;22.868;2022-11-15T00:56:40;102365.19;;;10.41;100.00
63808;BME280;49961;43.970;22.868;2022-11-15T00:57:41;102368.75;;;10.42;100.00
63808;BME280;49961;43.970;22.868;2022-11-15T00:58:42;102367.56;;;10.43;100.00
63808;BME280;49961;43.970;22.868;2022-11-15T00:59:42;102367.97;;;10.41;100.00
63808;BME280;49961;43.970;22.868;2022-11-15T01:00:42;102371.53;;;10.42;100.00
63808;BME280;49961;43.970;22.868;2022-11-15T01:01:43;102366.81;;;10.46;100.00
63808;BME280;49961;43.970;22.868;2022-11-15T01:02:43;102367.63;;;10.50;100.00
63808;BME280;49961;43.970;22.868;2022-11-15T01:03:44;102362.88;;;10.54;100.00
63808;BME280;49961;43.970;22.868;2022-11-15T01:04:44;102341.47;;;10.47;100.00
63808;BME280;49961;43.970;22.868;2022-11-15T01:05:45;102363.28;;;10.59;100.00
63808;BME280;49961;43.970;22.868;2022-11-15T01:06:45;102354.22;;;10.62;100.00
63808;BME280;49961;43.970;22.868;2022-11-15T01:07:46;102358.94;;;10.62;100.00
63808;BME280;49961;43.970;22.868;2022-11-15T01:08:46;102287.09;;;10.11;100.00
63808;BME280;49961;43.970;22.868;2022-11-15T01:09:47;102358.19;;;10.65;100.00
63808;BME280;49961;43.970;22.868;2022-11-15T01:10:47;102356.56;;;10.60;100.00
63808;BME280;49961;43.970;22.868;2022-11-15T01:11:47;102356.56;;;10.60;100.00
63808;BME280;49961;43.970;22.868;2022-11-15T01:12:48;102351.00;;;10.60;100.00
63808;BME280;49961;43.970;22.868;2022-11-15T01:13:49;102354.97;;;10.56;100.00
63808;BME280;49961;43.970;22.868;2022-11-15T01:14:49;102347.41;;;10.49;100.00
63808;BME280;49961;43.970;22.868;2022-11-15T01:15:49;102358.50;;;10.56;100.00
63808;BME280;49961;43.970;22.868;2022-11-15T01:16:50;102349.81;;;10.61;100.00
63808;BME280;49961;43.970;22.868;2022-11-15T01:17:50;102351.41;;;10.59;100.00
63808;BME280;49961;43.970;22.868;2022-11-15T01:18:51;102356.16;;;10.58;100.00
63808;BME280;49961;43.970;22.868;2022-11-15T01:19:51;102349.44;;;10.56;100.00
63808;BME280;49961;43.970;22.868;2022-11-15T01:20:52;102246.19;;;9.91;100.00
63808;BME280;49961;43.970;22.868;2022-11-15T01:21:52;102350.25;;;10.60;100.00
63808;BME280;49961;43.970;22.868;2022-11-15T01:22:53;102357.38;;;10.61;100.00
63808;BME280;49961;43.970;22.868;2022-11-15T01:23:54;102309.75;;;10.41;100.00
63808;BME280;49961;43.970;22.868;2022-11-15T01:24:55;102334.75;;;10.55;100.00
63808;BME280;49961;43.970;22.868;2022-11-15T01:26:00;102340.34;;;10.66;100.00
63808;BME280;49961;43.970;22.868;2022-11-15T01:27:00;102339.53;;;10.65;100.00
63808;BME280;49961;43.970;22.868;2022-11-15T01:28:01;102337.97;;;10.61;100.00
63808;BME280;49961;43.970;22.868;2022-11-15T01:29:01;102338.75;;;10.65;100.00
63808;BME280;49961;43.970;22.868;2022-11-15T01:30:02;102301.44;;;10.38;100.00
63808;BME280;49961;43.970;22.868;2022-11-15T01:31:06;102345.06;;;10.58;100.00
63808;BME280;49961;43.970;22.868;2022-11-15T01:32:07;102258.19;;;10.09;100.00
63808;BME280;49961;43.970;22.868;2022-11-15T01:33:07;102328.84;;;10.60;100.00
63808;BME280;49961;43.970;22.868;2022-11-15T01:34:08;102335.19;;;10.61;100.00
63808;BME280;49961;43.970;22.868;2022-11-15T01:35:08;102333.19;;;10.58;100.00
63808;BME280;49961;43.970;22.868;2022-11-15T01:36:20;102339.53;;;10.58;100.00
63808;BME280;49961;43.970;22.868;2022-11-15T01:37:21;102339.16;;;10.60;100.00
63808;BME280;49961;43.970;22.868;2022-11-15T01:38:22;102324.47;;;10.56;100.00
63808;BME280;49961;43.970;22.868;2022-11-15T01:39:22;102340.72;;;10.64;100.00
63808;BME280;49961;43.970;22.868;2022-11-15T01:40:23;102334.00;;;10.65;100.00
63808;BME280;49961;43.970;22.868;2022-11-15T01:41:28;102336.38;;;10.67;100.00
63808;BME280;49961;43.970;22.868;2022-11-15T01:42:29;102334.38;;;10.67;100.00
63808;BME280;49961;43.970;22.868;2022-11-15T01:43:36;102334.38;;;10.67;100.00
63808;BME280;49961;43.970;22.868;2022-11-15T01:44:50;102329.25;;;10.69;100.00
63808;BME280;49961;43.970;22.868;2022-11-15T01:46:06;102330.84;;;10.67;100.00
63808;BME280;49961;43.970;22.868;2022-11-15T01:47:17;102332.03;;;10.66;100.00
63808;BME280;49961;43.970;22.868;2022-11-15T01:48:20;102322.91;;;10.62;100.00
63808;BME280;49961;43.970;22.868;2022-11-15T01:49:22;102331.63;;;10.64;100.00
63808;BME280;49961;43.970;22.868;2022-11-15T01:50:27;102317.72;;;10.50;100.00
63808;BME280;49961;43.970;22.868;2022-11-15T01:51:31;102328.06;;;10.63;100.00
63808;BME280;49961;43.970;22.868;2022-11-15T01:52:34;102321.72;;;10.63;100.00
63808;BME280;49961;43.970;22.868;2022-11-15T01:53:36;102323.28;;;10.64;100.00
63808;BME280;49961;43.970;22.868;2022-11-15T01:54:38;102321.31;;;10.64;100.00
63808;BME280;49961;43.970;22.868;2022-11-15T01:55:39;102314.59;;;10.62;100.00
63808;BME280;49961;43.970;22.868;2022-11-15T01:56:47;102316.97;;;10.63;100.00
63808;BME280;49961;43.970;22.868;2022-11-15T01:57:53;102327.25;;;10.66;100.00
63808;BME280;49961;43.970;22.868;2022-11-15T01:58:57;102322.13;;;10.68;100.00
63808;BME280;49961;43.970;22.868;2022-11-15T02:00:00;102322.91;;;10.69;100.00
63808;BME280;49961;43.970;22.868;2022-11-15T02:01:01;102323.34;;;10.71;100.00
63808;BME280;49961;43.970;22.868;2022-11-15T02:02:02;102197.16;;;9.91;100.00
63808;BME280;49961;43.970;22.868;2022-11-15T02:03:02;102229.31;;;10.06;100.00
63808;BME280;49961;43.970;22.868;2022-11-15T02:04:11;102320.94;;;10.69;100.00
63808;BME280;49961;43.970;22.868;2022-11-15T02:05:13;102226.88;;;10.01;100.00
63808;BME280;49961;43.970;22.868;2022-11-15T02:06:14;102325.69;;;10.65;100.00
63808;BME280;49961;43.970;22.868;2022-11-15T02:07:19;102286.81;;;10.37;100.00
63808;BME280;49961;43.970;22.868;2022-11-15T02:08:20;102322.13;;;10.68;100.00
63808;BME280;49961;43.970;22.868;2022-11-15T02:09:20;102321.72;;;10.66;100.00
63808;BME280;49961;43.970;22.868;2022-11-15T02:10:23;102322.13;;;10.65;100.00
63808;BME280;49961;43.970;22.868;2022-11-15T02:11:23;102321.31;;;10.61;100.00
63808;BME280;49961;43.970;22.868;2022-11-15T02:12:24;102316.97;;;10.63;100.00
63808;BME280;49961;43.970;22.868;2022-11-15T02:13:25;102320.53;;;10.64;100.00
63808;BME280;49961;43.970;22.868;2022-11-15T02:14:27;102313.81;;;10.65;100.00
63808;BME280;49961;43.970;22.868;2022-11-15T02:15:38;102313.00;;;10.64;100.00
63808;BME280;49961;43.970;22.868;2022-11-15T02:17:12;102320.53;;;10.64;100.00
63808;BME280;49961;43.970;22.868;2022-11-15T02:18:29;102202.28;;;9.89;100.00
63808;BME280;49961;43.970;22.868;2022-11-15T02:25:02;102308.28;;;10.68;100.00
63808;BME280;49961;43.970;22.868;2022-11-15T02:29:13;102305.88;;;10.70;100.00
63808;BME280;49961;43.970;22.868;2022-11-15T02:30:29;102303.13;;;10.74;100.00
63808;BME280;49961;43.970;22.868;2022-11-15T02:36:40;102298.34;;;10.67;100.00
63808;BME280;49961;43.970;22.868;2022-11-15T02:38:54;102299.53;;;10.59;100.00
63808;BME280;49961;43.970;22.868;2022-11-15T02:41:18;102304.25;;;10.52;100.00
63808;BME280;49961;43.970;22.868;2022-11-15T02:42:26;102291.16;;;10.42;100.00
63808;BME280;49961;43.970;22.868;2022-11-15T02:44:01;102293.56;;;10.47;100.00
63808;BME280;49961;43.970;22.868;2022-11-15T02:45:06;102149.16;;;9.59;100.00
63808;BME280;49961;43.970;22.868;2022-11-15T02:46:18;102293.56;;;10.50;100.00
63808;BME280;49961;43.970;22.868;2022-11-15T02:47:24;102292.78;;;10.50;100.00
63808;BME280;49961;43.970;22.868;2022-11-15T02:48:28;102289.59;;;10.51;100.00
63808;BME280;49961;43.970;22.868;2022-11-15T02:49:32;102291.59;;;10.47;100.00
63808;BME280;49961;43.970;22.868;2022-11-15T02:50:33;102265.78;;;10.36;100.00
63808;BME280;49961;43.970;22.868;2022-11-15T02:51:34;102279.69;;;10.47;100.00
63808;BME280;49961;43.970;22.868;2022-11-15T02:52:34;102272.94;;;10.37;100.00
63808;BME280;49961;43.970;22.868;2022-11-15T02:53:35;102287.59;;;10.41;100.00
63808;BME280;49961;43.970;22.868;2022-11-15T02:54:35;102288.00;;;10.43;100.00
63808;BME280;49961;43.970;22.868;2022-11-15T02:55:38;102286.44;;;10.46;100.00
63808;BME280;49961;43.970;22.868;2022-11-15T02:56:42;102308.59;;;10.49;100.00
63808;BME280;49961;43.970;22.868;2022-11-15T02:58:17;102292.41;;;10.58;100.00
63808;BME280;49961;43.970;22.868;2022-11-15T03:00:38;102276.13;;;10.46;100.00
63808;BME280;49961;43.970;22.868;2022-11-15T03:04:48;102284.84;;;10.59;100.00
63808;BME280;49961;43.970;22.868;2022-11-15T03:07:11;102292.78;;;10.60;100.00
63808;BME280;49961;43.970;22.868;2022-11-15T03:10:06;102160.72;;;9.86;100.00
63808;BME280;49961;43.970;22.868;2022-11-15T03:11:18;102288.44;;;10.59;100.00
63808;BME280;49961;43.970;22.868;2022-11-15T03:12:23;102278.94;;;10.60;100.00
63808;BME280;49961;43.970;22.868;2022-11-15T03:14:55;102275.38;;;10.60;100.00
63808;BME280;49961;43.970;22.868;2022-11-15T03:16:13;102171.44;;;9.91;100.00
63808;BME280;49961;43.970;22.868;2022-11-15T03:17:19;102272.19;;;10.58;100.00
63808;BME280;49961;43.970;22.868;2022-11-15T03:18:32;102271.41;;;10.57;100.00
63808;BME280;49961;43.970;22.868;2022-11-15T03:19:57;102279.72;;;10.57;100.00
63808;BME280;49961;43.970;22.868;2022-11-15T03:21:01;102273.78;;;10.59;100.00
63808;BME280;49961;43.970;22.868;2022-11-15T03:22:05;102276.56;;;10.62;100.00
63808;BME280;49961;43.970;22.868;2022-11-15T03:23:10;102272.19;;;10.61;100.00
63808;BME280;49961;43.970;22.868;2022-11-15T03:24:12;102260.69;;;10.49;100.00
63808;BME280;49961;43.970;22.868;2022-11-15T03:25:19;102272.63;;;10.60;100.00
63808;BME280;49961;43.970;22.868;2022-11-15T03:26:22;102276.16;;;10.57;100.00
63808;BME280;49961;43.970;22.868;2022-11-15T03:27:28;102272.19;;;10.51;100.00
63808;BME280;49961;43.970;22.868;2022-11-15T03:28:40;102268.97;;;10.38;100.00
63808;BME280;49961;43.970;22.868;2022-11-15T03:29:51;102270.13;;;10.30;100.00
63808;BME280;49961;43.970;22.868;2022-11-15T03:30:53;102146.75;;;9.51;100.00
63808;BME280;49961;43.970;22.868;2022-11-15T03:32:00;102205.47;;;9.91;100.00
63808;BME280;49961;43.970;22.868;2022-11-15T03:33:03;102271.38;;;10.40;100.00
63808;BME280;49961;43.970;22.868;2022-11-15T03:34:07;102166.25;;;9.75;100.00
63808;BME280;49961;43.970;22.868;2022-11-15T03:35:20;102262.63;;;10.41;100.00
63808;BME280;49961;43.970;22.868;2022-11-15T03:36:22;102262.66;;;10.45;100.00
63808;BME280;49961;43.970;22.868;2022-11-15T03:37:30;102109.56;;;9.48;100.00
63808;BME280;49961;43.970;22.868;2022-11-15T03:38:34;102255.13;;;10.42;100.00
63808;BME280;49961;43.970;22.868;2022-11-15T03:39:35;102270.19;;;10.51;100.00
63808;BME280;49961;43.970;22.868;2022-11-15T03:40:44;102268.22;;;10.52;100.00
63808;BME280;49961;43.970;22.868;2022-11-15T03:43:38;102259.53;;;10.53;100.00
63808;BME280;49961;43.970;22.868;2022-11-15T03:46:24;102253.16;;;10.56;100.00
63808;BME280;49961;43.970;22.868;2022-11-15T03:47:34;102253.59;;;10.55;100.00
63808;BME280;49961;43.970;22.868;2022-11-15T03:48:49;102241.66;;;10.40;100.00
63808;BME280;49961;43.970;22.868;2022-11-15T03:49:53;102244.84;;;10.53;100.00
63808;BME280;49961;43.970;22.868;2022-11-15T03:50:57;102237.72;;;10.45;100.00
63808;BME280;49961;43.970;22.868;2022-11-15T03:51:59;102251.19;;;10.50;100.00
63808;BME280;49961;43.970;22.868;2022-11-15T03:53:00;102219.03;;;10.17;100.00
63808;BME280;49961;43.970;22.868;2022-11-15T03:54:03;102265.06;;;10.50;100.00
63808;BME280;49961;43.970;22.868;2022-11-15T03:55:07;102256.31;;;10.48;100.00
63808;BME280;49961;43.970;22.868;2022-11-15T03:56:08;102248.81;;;10.48;100.00
63808;BME280;49961;43.970;22.868;2022-11-15T03:57:08;102221.81;;;10.17;100.00
63808;BME280;49961;43.970;22.868;2022-11-15T03:58:09;102250.78;;;10.51;100.00
63808;BME280;49961;43.970;22.868;2022-11-15T03:59:09;102123.47;;;9.62;100.00
63808;BME280;49961;43.970;22.868;2022-11-15T04:00:10;102263.06;;;10.50;100.00
63808;BME280;49961;43.970;22.868;2022-11-15T04:01:11;102255.94;;;10.56;100.00
63808;BME280;49961;43.970;22.868;2022-11-15T04:02:13;102167.91;;;9.97;100.00
63808;BME280;49961;43.970;22.868;2022-11-15T04:03:13;102241.31;;;10.52;100.00
63808;BME280;49961;43.970;22.868;2022-11-15T04:04:14;102246.03;;;10.55;100.00
63808;BME280;49961;43.970;22.868;2022-11-15T04:05:14;102103.72;;;9.60;100.00
63808;BME280;49961;43.970;22.868;2022-11-15T04:06:15;102246.84;;;10.52;100.00
63808;BME280;49961;43.970;22.868;2022-11-15T04:07:15;102246.44;;;10.50;100.00
63808;BME280;49961;43.970;22.868;2022-11-15T04:08:16;102250.41;;;10.49;100.00
63808;BME280;49961;43.970;22.868;2022-11-15T04:09:16;102244.84;;;10.49;100.00
63808;BME280;49961;43.970;22.868;2022-11-15T04:10:16;102255.13;;;10.49;100.00
63808;BME280;49961;43.970;22.868;2022-11-15T04:11:17;102244.84;;;10.49;100.00
63808;BME280;49961;43.970;22.868;2022-11-15T04:12:17;102244.47;;;10.51;100.00
63808;BME280;49961;43.970;22.868;2022-11-15T04:13:30;102171.13;;;10.06;100.00
63808;BME280;49961;43.970;22.868;2022-11-15T04:14:31;102243.66;;;10.54;100.00
63808;BME280;49961;43.970;22.868;2022-11-15T04:15:31;102246.44;;;10.54;100.00
63808;BME280;49961;43.970;22.868;2022-11-15T04:16:32;102250.41;;;10.56;100.00
63808;BME280;49961;43.970;22.868;2022-11-15T04:18:37;102237.72;;;10.55;100.00
63808;BME280;49961;43.970;22.868;2022-11-15T04:19:38;102244.09;;;10.56;100.00
63808;BME280;49961;43.970;22.868;2022-11-15T04:20:56;102237.34;;;10.60;100.00
63808;BME280;49961;43.970;22.868;2022-11-15T04:22:15;102179.88;;;10.26;100.00
63808;BME280;49961;43.970;22.868;2022-11-15T04:23:34;102235.75;;;10.59;100.00
63808;BME280;49961;43.970;22.868;2022-11-15T04:25:07;102221.50;;;10.54;100.00
63808;BME280;49961;43.970;22.868;2022-11-15T04:26:10;102227.03;;;10.54;100.00
63808;BME280;49961;43.970;22.868;2022-11-15T04:27:11;102227.44;;;10.52;100.00
63808;BME280;49961;43.970;22.868;2022-11-15T04:28:13;102223.06;;;10.48;100.00
63808;BME280;49961;43.970;22.868;2022-11-15T04:29:13;102226.59;;;10.41;100.00
63808;BME280;49961;43.970;22.868;2022-11-15T04:30:32;102114.78;;;9.67;100.00
63808;BME280;49961;43.970;22.868;2022-11-15T04:31:33;102221.47;;;10.43;100.00
63808;BME280;49961;43.970;22.868;2022-11-15T04:32:33;102220.69;;;10.39;100.00
63808;BME280;49961;43.970;22.868;2022-11-15T04:33:34;102219.47;;;10.37;100.00
63808;BME280;49961;43.970;22.868;2022-11-15T04:34:34;102221.06;;;10.41;100.00
63808;BME280;49961;43.970;22.868;2022-11-15T04:35:35;102225.44;;;10.42;100.00
63808;BME280;49961;43.970;22.868;2022-11-15T04:36:35;102211.16;;;10.37;100.00
63808;BME280;49961;43.970;22.868;2022-11-15T04:37:55;102214.31;;;10.35;100.00
63808;BME280;49961;43.970;22.868;2022-11-15T04:38:56;102218.66;;;10.33;100.00
63808;BME280;49961;43.970;22.868;2022-11-15T04:39:56;102218.28;;;10.38;100.00
63808;BME280;49961;43.970;22.868;2022-11-15T04:40:56;102210.78;;;10.35;100.00
63808;BME280;49961;43.970;22.868;2022-11-15T04:41:57;102211.16;;;10.37;100.00
63808;BME280;49961;43.970;22.868;2022-11-15T04:42:57;102206.81;;;10.36;100.00
63808;BME280;49961;43.970;22.868;2022-11-15T04:43:58;102213.94;;;10.33;100.00
63808;BME280;49961;43.970;22.868;2022-11-15T04:44:58;102213.56;;;10.38;100.00
63808;BME280;49961;43.970;22.868;2022-11-15T04:45:59;102211.16;;;10.44;100.00
63808;BME280;49961;43.970;22.868;2022-11-15T04:46:59;102208.00;;;10.45;100.00
63808;BME280;49961;43.970;22.868;2022-11-15T04:48:00;102208.81;;;10.46;100.00
63808;BME280;49961;43.970;22.868;2022-11-15T04:49:00;102181.06;;;10.25;100.00
63808;BME280;49961;43.970;22.868;2022-11-15T04:50:00;102085.09;;;9.64;100.00
63808;BME280;49961;43.970;22.868;2022-11-15T04:51:01;102158.88;;;10.11;100.00
63808;BME280;49961;43.970;22.868;2022-11-15T04:52:01;102209.19;;;10.48;100.00
63808;BME280;49961;43.970;22.868;2022-11-15T04:53:02;102217.94;;;10.53;100.00
63808;BME280;49961;43.970;22.868;2022-11-15T04:54:02;102216.34;;;10.56;100.00
63808;BME280;49961;43.970;22.868;2022-11-15T04:55:03;102206.84;;;10.57;100.00
63808;BME280;49961;43.970;22.868;2022-11-15T04:56:04;102215.16;;;10.57;100.00
63808;BME280;49961;43.970;22.868;2022-11-15T04:57:04;102208.44;;;10.58;100.00
63808;BME280;49961;43.970;22.868;2022-11-15T04:58:04;102206.47;;;10.58;100.00
63808;BME280;49961;43.970;22.868;2022-11-15T04:59:05;102212.38;;;10.60;100.00
63808;BME280;49961;43.970;22.868;2022-11-15T05:00:09;102206.47;;;10.58;100.00
63808;BME280;49961;43.970;22.868;2022-11-15T05:01:14;102202.06;;;10.47;100.00
63808;BME280;49961;43.970;22.868;2022-11-15T05:02:14;102199.31;;;10.40;100.00
63808;BME280;49961;43.970;22.868;2022-11-15T05:03:15;102195.69;;;10.29;100.00
63808;BME280;49961;43.970;22.868;2022-11-15T05:04:34;102197.25;;;10.19;100.00
63808;BME280;49961;43.970;22.868;2022-11-15T05:05:34;102205.56;;;10.19;100.00
63808;BME280;49961;43.970;22.868;2022-11-15T05:06:35;102204.00;;;10.18;100.00
63808;BME280;49961;43.970;22.868;2022-11-15T05:07:35;102201.63;;;10.20;100.00
63808;BME280;49961;43.970;22.868;2022-11-15T05:08:35;102200.84;;;10.20;100.00
63808;BME280;49961;43.970;22.868;2022-11-15T05:09:36;102176.66;;;10.06;100.00
63808;BME280;49961;43.970;22.868;2022-11-15T05:10:36;102200.47;;;10.21;100.00
63808;BME280;49961;43.970;22.868;2022-11-15T05:11:37;102190.53;;;10.20;100.00
63808;BME280;49961;43.970;22.868;2022-11-15T05:12:37;102210.72;;;10.14;100.00
63808;BME280;49961;43.970;22.868;2022-11-15T05:13:38;102192.53;;;10.20;100.00
63808;BME280;49961;43.970;22.868;2022-11-15T05:14:38;102183.41;;;10.12;100.00
63808;BME280;49961;43.970;22.868;2022-11-15T05:15:38;102196.50;;;10.22;100.00
63808;BME280;49961;43.970;22.868;2022-11-15T05:16:39;102194.13;;;10.24;100.00
63808;BME280;49961;43.970;22.868;2022-11-15T05:17:40;102198.88;;;10.27;100.00
63808;BME280;49961;43.970;22.868;2022-11-15T05:18:41;102085.09;;;9.61;100.00
63808;BME280;49961;43.970;22.868;2022-11-15T05:19:41;102196.50;;;10.33;100.00
63808;BME280;49961;43.970;22.868;2022-11-15T05:20:42;102202.84;;;10.30;100.00
63808;BME280;49961;43.970;22.868;2022-11-15T05:21:42;102196.13;;;10.31;100.00
63808;BME280;49961;43.970;22.868;2022-11-15T05:22:43;102199.66;;;10.31;100.00
63808;BME280;49961;43.970;22.868;2022-11-15T05:23:43;102192.53;;;10.34;100.00
63808;BME280;49961;43.970;22.868;2022-11-15T05:24:44;102198.88;;;10.38;100.00
63808;BME280;49961;43.970;22.868;2022-11-15T05:25:44;102194.94;;;10.39;100.00
63808;BME280;49961;43.970;22.868;2022-11-15T05:26:45;102193.72;;;10.33;100.00
63808;BME280;49961;43.970;22.868;2022-11-15T05:27:45;102205.63;;;10.40;100.00
63808;BME280;49961;43.970;22.868;2022-11-15T05:28:45;102205.63;;;10.44;100.00
63808;BME280;49961;43.970;22.868;2022-11-15T05:29:46;102194.16;;;10.49;100.00
63808;BME280;49961;43.970;22.868;2022-11-15T05:30:46;102192.56;;;10.44;100.00
63808;BME280;49961;43.970;22.868;2022-11-15T05:31:47;102203.28;;;10.42;100.00
63808;BME280;49961;43.970;22.868;2022-11-15T05:32:47;102196.91;;;10.42;100.00
63808;BME280;49961;43.970;22.868;2022-11-15T05:33:50;102204.47;;;10.45;100.00
63808;BME280;49961;43.970;22.868;2022-11-15T05:34:51;102178.72;;;10.37;100.00
63808;BME280;49961;43.970;22.868;2022-11-15T05:35:57;102189.81;;;10.48;100.00
63808;BME280;49961;43.970;22.868;2022-11-15T05:37:01;102191.00;;;10.54;100.00
63808;BME280;49961;43.970;22.868;2022-11-15T05:38:01;102202.50;;;10.52;100.00
63808;BME280;49961;43.970;22.868;2022-11-15T05:39:03;102192.19;;;10.53;100.00
63808;BME280;49961;43.970;22.868;2022-11-15T05:40:05;102197.72;;;10.53;100.00
63808;BME280;49961;43.970;22.868;2022-11-15T05:41:05;102194.19;;;10.56;100.00
63808;BME280;49961;43.970;22.868;2022-11-15T05:42:09;102193.75;;;10.54;100.00
63808;BME280;49961;43.970;22.868;2022-11-15T05:43:10;102195.75;;;10.57;100.00
63808;BME280;49961;43.970;22.868;2022-11-15T05:44:12;102183.84;;;10.32;100.00
63808;BME280;49961;43.970;22.868;2022-11-15T05:45:15;102199.72;;;10.56;100.00
63808;BME280;49961;43.970;22.868;2022-11-15T05:46:16;102180.28;;;10.42;100.00
63808;BME280;49961;43.970;22.868;2022-11-15T05:47:22;102200.91;;;10.58;100.00
63808;BME280;49961;43.970;22.868;2022-11-15T05:48:25;102189.00;;;10.44;100.00
63808;BME280;49961;43.970;22.868;2022-11-15T05:49:30;102196.97;;;10.52;100.00
63808;BME280;49961;43.970;22.868;2022-11-15T05:50:31;102204.84;;;10.54;100.00